sensor_id;sensor_type;location;lat;lon;timestamp;noise_LAeq;noise_LA_min;noise_LA_max;noise_LA01;noise_LA95
73663;Laerm;61956;52.540;13.382;2023-03-13T00:01:41;87.81;80.80;94.88;;
73663;Laerm;61956;52.540;13.382;2023-03-13T00:04:10;87.73;80.91;95.88;;
73663;Laerm;61956;52.540;13.382;2023-03-13T00:06:42;87.76;80.89;93.98;;
73663;Laerm;61956;52.540;13.382;2023-03-13T00:09:16;87.75;80.80;94.47;;
73663;Laerm;61956;52.540;13.382;2023-03-13T00:11:45;87.81;80.73;95.42;;
73663;Laerm;61956;52.540;13.382;2023-03-13T00:14:15;87.74;80.70;94.84;;
73663;Laerm;61956;52.540;13.382;2023-03-13T00:16:44;87.71;80.82;94.29;;
73663;Laerm;61956;52.540;13.382;2023-03-13T00:19:15;87.75;80.92;94.13;;
73663;Laerm;61956;52.540;13.382;2023-03-13T00:21:47;87.79;80.80;97.52;;
73663;Laerm;61956;52.540;13.382;2023-03-13T00:24:16;87.75;80.87;96.93;;
73663;Laerm;61956;52.540;13.382;2023-03-13T00:26:47;87.78;80.58;95.14;;
73663;Laerm;61956;52.540;13.382;2023-03-13T00:29:16;87.81;80.85;94.65;;
73663;Laerm;61956;52.540;13.382;2023-03-13T00:31:45;87.76;80.85;94.94;;
73663;Laerm;61956;52.540;13.382;2023-03-13T00:34:16;87.82;80.87;94.51;;
73663;Laerm;61956;52.540;13.382;2023-03-13T00:36:47;87.85;80.43;94.27;;
73663;Laerm;61956;52.540;13.382;2023-03-13T00:39:16;87.82;80.83;95.06;;
73663;Laerm;61956;52.540;13.382;2023-03-13T00:41:46;87.75;80.67;93.88;;
73663;Laerm;61956;52.540;13.382;2023-03-13T00:44:15;87.77;80.71;95.68;;
73663;Laerm;61956;52.540;13.382;2023-03-13T00:46:47;87.77;80.69;94.09;;
73663;Laerm;61956;52.540;13.382;2023-03-13T00:49:16;87.80;80.50;95.10;;
73663;Laerm;61956;52.540;13.382;2023-03-13T00:51:48;87.78;81.21;94.25;;
73663;Laerm;61956;52.540;13.382;2023-03-13T00:54:17;87.85;80.64;97.58;;
73663;Laerm;61956;52.540;13.382;2023-03-13T00:56:47;87.75;80.75;94.20;;
73663;Laerm;61956;52.540;13.382;2023-03-13T00:59:16;87.83;81.09;94.75;;
73663;Laerm;61956;52.540;13.382;2023-03-13T01:01:45;87.75;80.90;95.53;;
73663;Laerm;61956;52.540;13.382;2023-03-13T01:04:14;87.74;80.60;94.36;;
73663;Laerm;61956;52.540;13.382;2023-03-13T01:06:43;87.77;80.87;94.35;;
73663;Laerm;61956;52.540;13.382;2023-03-13T01:09:16;87.69;80.65;93.58;;
73663;Laerm;61956;52.540;13.382;2023-03-13T01:11:45;87.84;80.66;94.61;;
73663;Laerm;61956;52.540;13.382;2023-03-13T01:14:18;87.69;80.57;94.94;;
73663;Laerm;61956;52.540;13.382;2023-03-13T01:16:47;87.77;80.78;95.33;;
73663;Laerm;61956;52.540;13.382;2023-03-13T01:19:20;87.75;81.00;95.31;;
73663;Laerm;61956;52.540;13.382;2023-03-13T01:21:49;87.79;80.99;94.40;;
73663;Laerm;61956;52.540;13.382;2023-03-13T01:24:21;87.81;80.52;94.36;;
73663;Laerm;61956;52.540;13.382;2023-03-13T01:26:50;87.74;80.75;95.47;;
73663;Laerm;61956;52.540;13.382;2023-03-13T01:29:19;87.79;80.78;95.90;;
73663;Laerm;61956;52.540;13.382;2023-03-13T01:31:48;87.79;80.83;94.55;;
73663;Laerm;61956;52.540;13.382;2023-03-13T01:34:17;87.81;80.81;96.08;;
73663;Laerm;61956;52.540;13.382;2023-03-13T01:36:47;87.73;80.46;96.05;;
73663;Laerm;61956;52.540;13.382;2023-03-13T01:39:20;87.77;81.03;93.97;;
73663;Laerm;61956;52.540;13.382;2023-03-13T01:41:49;87.76;80.93;94.24;;
73663;Laerm;61956;52.540;13.382;2023-03-13T01:44:22;87.79;80.65;95.08;;
73663;Laerm;61956;52.540;13.382;2023-03-13T01:46:54;87.76;81.04;95.43;;
73663;Laerm;61956;52.540;13.382;2023-03-13T01:49:27;87.78;80.83;95.26;;
73663;Laerm;61956;52.540;13.382;2023-03-13T01:52:19;87.81;81.02;96.44;;
73663;Laerm;61956;52.540;13.382;2023-03-13T01:55:02;87.80;80.78;95.60;;
73663;Laerm;61956;52.540;13.382;2023-03-13T01:57:37;87.80;80.91;94.18;;
73663;Laerm;61956;52.540;13.382;2023-03-13T02:00:14;87.81;81.02;95.41;;
73663;Laerm;61956;52.540;13.382;2023-03-13T02:02:50;87.76;81.13;94.23;;
73663;Laerm;61956;52.540;13.382;2023-03-13T02:05:23;87.82;80.80;94.47;;
73663;Laerm;61956;52.540;13.382;2023-03-13T02:07:56;87.78;80.96;95.54;;
73663;Laerm;61956;52.540;13.382;2023-03-13T02:10:37;87.84;80.53;94.65;;
73663;Laerm;61956;52.540;13.382;2023-03-13T02:13:07;87.83;80.93;94.56;;
73663;Laerm;61956;52.540;13.382;2023-03-13T02:15:40;87.80;80.76;95.32;;
73663;Laerm;61956;52.540;13.382;2023-03-13T02:18:10;87.77;80.77;93.81;;
73663;Laerm;61956;52.540;13.382;2023-03-13T02:20:39;87.78;81.01;93.81;;
73663;Laerm;61956;52.540;13.382;2023-03-13T02:23:18;87.81;80.94;94.30;;
73663;Laerm;61956;52.540;13.382;2023-03-13T02:25:53;87.82;80.76;95.06;;
73663;Laerm;61956;52.540;13.382;2023-03-13T02:28:32;87.83;81.12;94.70;;
73663;Laerm;61956;52.540;13.382;2023-03-13T02:31:07;87.79;81.02;95.38;;
73663;Laerm;61956;52.540;13.382;2023-03-13T02:33:40;87.82;80.86;95.03;;
73663;Laerm;61956;52.540;13.382;2023-03-13T02:36:15;87.76;81.01;97.09;;
73663;Laerm;61956;52.540;13.382;2023-03-13T02:38:52;87.84;80.79;95.79;;
73663;Laerm;61956;52.540;13.382;2023-03-13T02:41:28;87.82;80.64;95.39;;
73663;Laerm;61956;52.540;13.382;2023-03-13T02:43:59;87.79;81.06;95.89;;
73663;Laerm;61956;52.540;13.382;2023-03-13T02:46:28;87.82;81.02;93.98;;
73663;Laerm;61956;52.540;13.382;2023-03-13T02:48:58;87.84;80.66;94.91;;
73663;Laerm;61956;52.540;13.382;2023-03-13T02:51:32;87.77;80.94;94.95;;
73663;Laerm;61956;52.540;13.382;2023-03-13T02:54:08;87.83;80.75;95.26;;
73663;Laerm;61956;52.540;13.382;2023-03-13T02:56:45;87.77;80.70;93.64;;
73663;Laerm;61956;52.540;13.382;2023-03-13T02:59:15;87.77;80.82;94.16;;
73663;Laerm;61956;52.540;13.382;2023-03-13T03:01:46;87.81;80.63;93.83;;
73663;Laerm;61956;52.540;13.382;2023-03-13T03:04:19;87.76;80.55;94.38;;
73663;Laerm;61956;52.540;13.382;2023-03-13T03:06:53;87.82;80.99;97.22;;
73663;Laerm;61956;52.540;13.382;2023-03-13T03:09:23;87.77;81.01;94.76;;
73663;Laerm;61956;52.540;13.382;2023-03-13T03:11:59;87.78;80.90;97.87;;
73663;Laerm;61956;52.540;13.382;2023-03-13T03:14:29;87.70;80.86;93.50;;
73663;Laerm;61956;52.540;13.382;2023-03-13T03:16:59;87.76;80.95;96.26;;
73663;Laerm;61956;52.540;13.382;2023-03-13T03:19:28;87.73;80.96;94.91;;
73663;Laerm;61956;52.540;13.382;2023-03-13T03:21:59;87.74;80.68;93.97;;
73663;Laerm;61956;52.540;13.382;2023-03-13T03:24:29;87.71;80.93;94.25;;
73663;Laerm;61956;52.540;13.382;2023-03-13T03:27:01;87.71;80.78;94.51;;
73663;Laerm;61956;52.540;13.382;2023-03-13T03:29:37;87.76;80.83;96.20;;
73663;Laerm;61956;52.540;13.382;2023-03-13T03:32:07;87.74;80.90;97.23;;
73663;Laerm;61956;52.540;13.382;2023-03-13T03:34:37;87.75;81.08;95.17;;
73663;Laerm;61956;52.540;13.382;2023-03-13T03:37:07;87.70;80.81;94.08;;
73663;Laerm;61956;52.540;13.382;2023-03-13T03:39:39;87.73;80.84;95.06;;
73663;Laerm;61956;52.540;13.382;2023-03-13T03:42:11;87.69;80.69;94.39;;
73663;Laerm;61956;52.540;13.382;2023-03-13T03:44:40;87.80;80.76;95.40;;
73663;Laerm;61956;52.540;13.382;2023-03-13T03:47:10;87.73;80.80;94.77;;
73663;Laerm;61956;52.540;13.382;2023-03-13T03:49:44;87.69;80.50;94.58;;
73663;Laerm;61956;52.540;13.382;2023-03-13T03:52:15;87.74;80.77;94.80;;
73663;Laerm;61956;52.540;13.382;2023-03-13T03:54:44;87.72;80.71;95.47;;
73663;Laerm;61956;52.540;13.382;2023-03-13T03:57:17;87.73;80.51;94.34;;
73663;Laerm;61956;52.540;13.382;2023-03-13T03:59:46;87.68;80.98;95.28;;
73663;Laerm;61956;52.540;13.382;2023-03-13T04:02:16;87.68;80.30;94.98;;
73663;Laerm;61956;52.540;13.382;2023-03-13T04:04:45;87.70;80.71;95.56;;
73663;Laerm;61956;52.540;13.382;2023-03-13T04:07:21;87.73;80.43;94.32;;
73663;Laerm;61956;52.540;13.382;2023-03-13T04:09:51;87.75;80.98;94.22;;
73663;Laerm;61956;52.540;13.382;2023-03-13T04:12:29;87.70;80.86;96.07;;
73663;Laerm;61956;52.540;13.382;2023-03-13T04:14:58;87.72;80.66;94.27;;
73663;Laerm;61956;52.540;13.382;2023-03-13T04:17:28;87.68;80.80;94.85;;
73663;Laerm;61956;52.540;13.382;2023-03-13T04:19:57;87.66;80.89;95.47;;
73663;Laerm;61956;52.540;13.382;2023-03-13T04:22:28;87.68;80.92;95.12;;
73663;Laerm;61956;52.540;13.382;2023-03-13T04:24:58;87.67;80.61;93.86;;
73663;Laerm;61956;52.540;13.382;2023-03-13T04:27:34;87.70;80.63;94.82;;
73663;Laerm;61956;52.540;13.382;2023-03-13T04:30:06;87.74;80.77;94.13;;
73663;Laerm;61956;52.540;13.382;2023-03-13T04:32:54;87.72;81.09;95.35;;
73663;Laerm;61956;52.540;13.382;2023-03-13T04:35:44;87.76;80.53;97.50;;
73663;Laerm;61956;52.540;13.382;2023-03-13T04:38:22;87.69;80.49;94.43;;
73663;Laerm;61956;52.540;13.382;2023-03-13T04:41:03;87.68;80.72;93.60;;
73663;Laerm;61956;52.540;13.382;2023-03-13T04:43:55;87.67;80.75;94.26;;
73663;Laerm;61956;52.540;13.382;2023-03-13T04:46:39;87.72;80.94;95.68;;
73663;Laerm;61956;52.540;13.382;2023-03-13T04:49:27;87.68;80.46;95.45;;
73663;Laerm;61956;52.540;13.382;2023-03-13T04:52:22;87.71;80.45;96.41;;
73663;Laerm;61956;52.540;13.382;2023-03-13T04:55:15;87.72;80.80;93.95;;
73663;Laerm;61956;52.540;13.382;2023-03-13T04:57:52;87.66;80.70;94.33;;
73663;Laerm;61956;52.540;13.382;2023-03-13T05:00:52;87.76;80.71;95.86;;
73663;Laerm;61956;52.540;13.382;2023-03-13T05:03:54;87.76;80.65;95.11;;
73663;Laerm;61956;52.540;13.382;2023-03-13T05:06:42;87.72;80.89;95.02;;
73663;Laerm;61956;52.540;13.382;2023-03-13T05:09:46;87.69;80.73;94.66;;
73663;Laerm;61956;52.540;13.382;2023-03-13T05:12:36;87.68;80.71;95.16;;
73663;Laerm;61956;52.540;13.382;2023-03-13T05:15:24;87.68;80.72;96.05;;
73663;Laerm;61956;52.540;13.382;2023-03-13T05:18:34;87.73;80.47;94.38;;
73663;Laerm;61956;52.540;13.382;2023-03-13T05:21:22;87.65;80.83;94.24;;
73663;Laerm;61956;52.540;13.382;2023-03-13T05:24:05;87.67;80.51;95.28;;
73663;Laerm;61956;52.540;13.382;2023-03-13T05:26:45;87.70;80.77;95.51;;
73663;Laerm;61956;52.540;13.382;2023-03-13T05:29:27;87.75;80.23;96.62;;
73663;Laerm;61956;52.540;13.382;2023-03-13T05:31:56;87.75;80.70;95.23;;
73663;Laerm;61956;52.540;13.382;2023-03-13T05:34:47;87.71;80.78;94.40;;
73663;Laerm;61956;52.540;13.382;2023-03-13T05:37:35;87.75;80.85;95.02;;
73663;Laerm;61956;52.540;13.382;2023-03-13T05:40:19;87.70;80.72;95.52;;
73663;Laerm;61956;52.540;13.382;2023-03-13T05:43:08;87.75;80.69;95.16;;
73663;Laerm;61956;52.540;13.382;2023-03-13T05:45:47;87.64;80.45;94.41;;
73663;Laerm;61956;52.540;13.382;2023-03-13T05:48:36;87.66;80.90;94.78;;
73663;Laerm;61956;52.540;13.382;2023-03-13T05:51:24;87.64;80.85;94.12;;
73663;Laerm;61956;52.540;13.382;2023-03-13T05:54:16;87.73;80.84;96.10;;
73663;Laerm;61956;52.540;13.382;2023-03-13T05:57:03;87.72;80.78;95.89;;
73663;Laerm;61956;52.540;13.382;2023-03-13T05:59:53;87.66;80.83;95.95;;
73663;Laerm;61956;52.540;13.382;2023-03-13T06:03:01;87.67;80.71;94.18;;
73663;Laerm;61956;52.540;13.382;2023-03-13T06:05:36;87.65;80.48;93.62;;
73663;Laerm;61956;52.540;13.382;2023-03-13T06:08:16;87.65;80.71;94.16;;
73663;Laerm;61956;52.540;13.382;2023-03-13T06:10:46;87.67;80.72;95.49;;
73663;Laerm;61956;52.540;13.382;2023-03-13T06:13:15;87.66;80.73;94.86;;
73663;Laerm;61956;52.540;13.382;2023-03-13T06:15:50;87.70;80.67;95.92;;
73663;Laerm;61956;52.540;13.382;2023-03-13T06:18:42;87.62;80.33;94.42;;
73663;Laerm;61956;52.540;13.382;2023-03-13T06:21:12;87.63;80.41;94.62;;
73663;Laerm;61956;52.540;13.382;2023-03-13T06:23:44;87.66;80.87;94.71;;
73663;Laerm;61956;52.540;13.382;2023-03-13T06:26:13;87.75;80.76;95.06;;
73663;Laerm;61956;52.540;13.382;2023-03-13T06:28:42;87.63;80.83;94.76;;
73663;Laerm;61956;52.540;13.382;2023-03-13T06:31:12;87.71;80.69;96.70;;
73663;Laerm;61956;52.540;13.382;2023-03-13T06:33:41;87.65;80.97;94.16;;
73663;Laerm;61956;52.540;13.382;2023-03-13T06:36:12;87.63;80.55;94.62;;
73663;Laerm;61956;52.540;13.382;2023-03-13T06:38:44;87.67;80.96;94.99;;
73663;Laerm;61956;52.540;13.382;2023-03-13T06:41:13;87.66;81.08;94.33;;
73663;Laerm;61956;52.540;13.382;2023-03-13T06:43:44;87.67;80.83;94.89;;
73663;Laerm;61956;52.540;13.382;2023-03-13T06:46:20;87.70;80.37;93.74;;
73663;Laerm;61956;52.540;13.382;2023-03-13T06:48:51;87.67;80.90;94.51;;
73663;Laerm;61956;52.540;13.382;2023-03-13T06:51:21;87.77;81.00;95.53;;
73663;Laerm;61956;52.540;13.382;2023-03-13T06:53:53;87.67;81.00;95.69;;
73663;Laerm;61956;52.540;13.382;2023-03-13T06:56:23;87.74;80.24;94.37;;
73663;Laerm;61956;52.540;13.382;2023-03-13T06:58:52;87.72;80.84;95.65;;
73663;Laerm;61956;52.540;13.382;2023-03-13T07:01:21;87.72;80.25;95.04;;
73663;Laerm;61956;52.540;13.382;2023-03-13T07:03:50;87.68;80.73;93.73;;
73663;Laerm;61956;52.540;13.382;2023-03-13T07:06:20;87.65;80.56;93.90;;
73663;Laerm;61956;52.540;13.382;2023-03-13T07:08:49;87.66;80.84;94.78;;
73663;Laerm;61956;52.540;13.382;2023-03-13T07:11:20;87.76;80.69;94.30;;
73663;Laerm;61956;52.540;13.382;2023-03-13T07:13:54;87.77;80.43;95.49;;
73663;Laerm;61956;52.540;13.382;2023-03-13T07:16:26;87.78;80.85;97.45;;
73663;Laerm;61956;52.540;13.382;2023-03-13T07:18:56;87.70;80.36;93.54;;
73663;Laerm;61956;52.540;13.382;2023-03-13T07:21:25;87.68;80.75;95.45;;
73663;Laerm;61956;52.540;13.382;2023-03-13T07:23:54;87.65;80.58;94.44;;
73663;Laerm;61956;52.540;13.382;2023-03-13T07:26:26;87.69;80.48;94.91;;
73663;Laerm;61956;52.540;13.382;2023-03-13T07:28:57;87.73;80.77;99.32;;
73663;Laerm;61956;52.540;13.382;2023-03-13T07:31:27;87.68;80.65;95.03;;
73663;Laerm;61956;52.540;13.382;2023-03-13T07:33:59;87.66;80.69;94.31;;
73663;Laerm;61956;52.540;13.382;2023-03-13T07:36:28;87.63;80.54;95.67;;
73663;Laerm;61956;52.540;13.382;2023-03-13T07:39:00;87.63;80.68;94.96;;
73663;Laerm;61956;52.540;13.382;2023-03-13T07:41:32;87.65;80.55;96.07;;
73663;Laerm;61956;52.540;13.382;2023-03-13T07:44:01;87.56;80.26;94.61;;
73663;Laerm;61956;52.540;13.382;2023-03-13T07:46:30;87.61;80.53;93.89;;
73663;Laerm;61956;52.540;13.382;2023-03-13T07:48:59;87.59;80.49;94.99;;
73663;Laerm;61956;52.540;13.382;2023-03-13T07:51:31;87.57;80.38;94.46;;
73663;Laerm;61956;52.540;13.382;2023-03-13T07:54:00;87.58;80.53;95.49;;
73663;Laerm;61956;52.540;13.382;2023-03-13T07:56:32;87.54;80.58;93.87;;
73663;Laerm;61956;52.540;13.382;2023-03-13T07:59:02;87.54;80.64;96.16;;
73663;Laerm;61956;52.540;13.382;2023-03-13T08:01:31;87.56;80.31;94.28;;
73663;Laerm;61956;52.540;13.382;2023-03-13T08:04:00;87.64;80.38;94.51;;
73663;Laerm;61956;52.540;13.382;2023-03-13T08:06:32;87.54;80.31;94.53;;
73663;Laerm;61956;52.540;13.382;2023-03-13T08:09:02;87.59;80.45;93.89;;
73663;Laerm;61956;52.540;13.382;2023-03-13T08:11:34;87.53;80.60;93.84;;
73663;Laerm;61956;52.540;13.382;2023-03-13T08:14:03;87.44;80.54;93.53;;
73663;Laerm;61956;52.540;13.382;2023-03-13T08:16:34;87.49;80.45;94.38;;
73663;Laerm;61956;52.540;13.382;2023-03-13T08:19:04;87.58;80.65;96.33;;
73663;Laerm;61956;52.540;13.382;2023-03-13T08:21:35;87.51;80.39;93.67;;
73663;Laerm;61956;52.540;13.382;2023-03-13T08:24:07;87.50;80.62;94.39;;
73663;Laerm;61956;52.540;13.382;2023-03-13T08:26:41;87.45;80.38;96.31;;
73663;Laerm;61956;52.540;13.382;2023-03-13T08:29:13;87.39;80.38;95.71;;
73663;Laerm;61956;52.540;13.382;2023-03-13T08:31:45;87.44;80.38;93.93;;
73663;Laerm;61956;52.540;13.382;2023-03-13T08:34:16;87.43;80.36;95.12;;
73663;Laerm;61956;52.540;13.382;2023-03-13T08:36:46;87.43;80.60;93.93;;
73663;Laerm;61956;52.540;13.382;2023-03-13T08:39:17;87.37;80.26;94.50;;
73663;Laerm;61956;52.540;13.382;2023-03-13T08:41:49;87.43;80.28;93.87;;
73663;Laerm;61956;52.540;13.382;2023-03-13T08:44:19;87.41;80.04;94.17;;
73663;Laerm;61956;52.540;13.382;2023-03-13T08:46:48;87.37;80.32;94.02;;
73663;Laerm;61956;52.540;13.382;2023-03-13T08:49:23;87.39;79.81;96.14;;
73663;Laerm;61956;52.540;13.382;2023-03-13T08:51:52;87.40;80.21;95.57;;
73663;Laerm;61956;52.540;13.382;2023-03-13T08:54:21;87.37;80.18;95.12;;
73663;Laerm;61956;52.540;13.382;2023-03-13T08:56:53;87.42;80.31;94.06;;
73663;Laerm;61956;52.540;13.382;2023-03-13T08:59:22;87.40;80.24;94.67;;
73663;Laerm;61956;52.540;13.382;2023-03-13T09:01:51;87.39;80.24;95.12;;
73663;Laerm;61956;52.540;13.382;2023-03-13T09:04:21;87.46;80.19;95.99;;
73663;Laerm;61956;52.540;13.382;2023-03-13T09:06:50;87.37;80.37;95.39;;
73663;Laerm;61956;52.540;13.382;2023-03-13T09:09:19;87.37;80.02;93.93;;
73663;Laerm;61956;52.540;13.382;2023-03-13T09:11:48;87.38;80.50;94.60;;
73663;Laerm;61956;52.540;13.382;2023-03-13T09:14:20;87.35;80.63;94.03;;
73663;Laerm;61956;52.540;13.382;2023-03-13T09:16:49;87.42;80.01;95.11;;
73663;Laerm;61956;52.540;13.382;2023-03-13T09:21:47;77.06;74.23;81.40;;
73663;Laerm;61956;52.540;13.382;2023-03-13T09:24:17;79.24;74.70;83.18;;
73663;Laerm;61956;52.540;13.382;2023-03-13T09:26:46;80.25;75.08;84.42;;
73663;Laerm;61956;52.540;13.382;2023-03-13T09:29:15;80.97;75.58;85.46;;
73663;Laerm;61956;52.540;13.382;2023-03-13T09:31:47;81.54;75.76;86.39;;
73663;Laerm;61956;52.540;13.382;2023-03-13T09:34:16;82.05;76.03;86.92;;
73663;Laerm;61956;52.540;13.382;2023-03-13T09:36:48;82.52;76.42;87.27;;
73663;Laerm;61956;52.540;13.382;2023-03-13T09:39:17;82.91;76.55;88.24;;
73663;Laerm;61956;52.540;13.382;2023-03-13T09:41:54;83.21;76.97;89.05;;
73663;Laerm;61956;52.540;13.382;2023-03-13T09:44:28;83.58;77.36;89.17;;
73663;Laerm;61956;52.540;13.382;2023-03-13T09:47:09;83.81;77.48;89.06;;
73663;Laerm;61956;52.540;13.382;2023-03-13T09:49:44;84.06;77.53;89.90;;
73663;Laerm;61956;52.540;13.382;2023-03-13T09:52:18;84.24;77.82;90.21;;
73663;Laerm;61956;52.540;13.382;2023-03-13T09:54:55;84.40;77.93;90.14;;
73663;Laerm;61956;52.540;13.382;2023-03-13T09:57:33;84.61;78.16;91.29;;
73663;Laerm;61956;52.540;13.382;2023-03-13T10:00:09;84.80;78.13;91.13;;
73663;Laerm;61956;52.540;13.382;2023-03-13T10:02:46;84.98;78.41;91.87;;
73663;Laerm;61956;52.540;13.382;2023-03-13T10:05:25;85.14;78.27;90.98;;
73663;Laerm;61956;52.540;13.382;2023-03-13T10:07:59;85.30;78.60;91.80;;
73663;Laerm;61956;52.540;13.382;2023-03-13T10:10:43;85.36;78.74;90.79;;
73663;Laerm;61956;52.540;13.382;2023-03-13T10:13:19;85.46;78.96;90.67;;
73663;Laerm;61956;52.540;13.382;2023-03-13T10:15:55;85.58;78.75;91.78;;
73663;Laerm;61956;52.540;13.382;2023-03-13T10:18:28;85.66;79.02;91.19;;
73663;Laerm;61956;52.540;13.382;2023-03-13T10:21:09;85.75;78.98;91.80;;
73663;Laerm;61956;52.540;13.382;2023-03-13T10:23:48;85.83;79.24;91.25;;
73663;Laerm;61956;52.540;13.382;2023-03-13T10:26:26;85.80;79.30;91.25;;
73663;Laerm;61956;52.540;13.382;2023-03-13T10:29:08;85.85;79.22;91.46;;
73663;Laerm;61956;52.540;13.382;2023-03-13T10:31:45;85.91;79.28;92.04;;
73663;Laerm;61956;52.540;13.382;2023-03-13T10:34:20;86.00;79.24;91.48;;
73663;Laerm;61956;52.540;13.382;2023-03-13T10:36:56;86.01;79.41;92.31;;
73663;Laerm;61956;52.540;13.382;2023-03-13T10:39:28;86.11;79.69;91.62;;
73663;Laerm;61956;52.540;13.382;2023-03-13T10:42:08;86.03;79.35;91.56;;
73663;Laerm;61956;52.540;13.382;2023-03-13T10:44:38;86.11;79.40;92.36;;
73663;Laerm;61956;52.540;13.382;2023-03-13T10:47:12;86.08;79.38;92.04;;
73663;Laerm;61956;52.540;13.382;2023-03-13T10:49:55;86.10;79.35;92.08;;
73663;Laerm;61956;52.540;13.382;2023-03-13T10:52:42;86.07;79.58;92.81;;
73663;Laerm;61956;52.540;13.382;2023-03-13T10:55:17;86.07;79.60;91.04;;
73663;Laerm;61956;52.540;13.382;2023-03-13T10:57:56;86.06;79.77;91.94;;
73663;Laerm;61956;52.540;13.382;2023-03-13T11:00:34;86.04;79.36;92.13;;
73663;Laerm;61956;52.540;13.382;2023-03-13T11:03:11;86.13;79.40;91.88;;
73663;Laerm;61956;52.540;13.382;2023-03-13T11:05:55;86.05;79.64;92.01;;
73663;Laerm;61956;52.540;13.382;2023-03-13T11:08:26;86.03;79.58;92.45;;
73663;Laerm;61956;52.540;13.382;2023-03-13T11:11:01;86.05;79.53;92.79;;
73663;Laerm;61956;52.540;13.382;2023-03-13T11:13:36;86.02;79.36;92.05;;
73663;Laerm;61956;52.540;13.382;2023-03-13T11:16:18;86.01;79.37;91.90;;
73663;Laerm;61956;52.540;13.382;2023-03-13T11:19:27;86.06;79.40;92.00;;
73663;Laerm;61956;52.540;13.382;2023-03-13T11:22:18;85.97;79.39;92.45;;
73663;Laerm;61956;52.540;13.382;2023-03-13T11:24:58;85.96;79.54;91.28;;
73663;Laerm;61956;52.540;13.382;2023-03-13T11:27:37;85.94;79.38;91.59;;
73663;Laerm;61956;52.540;13.382;2023-03-13T11:30:21;85.94;79.32;91.62;;
73663;Laerm;61956;52.540;13.382;2023-03-13T11:33:00;85.88;79.36;91.77;;
73663;Laerm;61956;52.540;13.382;2023-03-13T11:35:45;85.89;79.12;92.06;;
73663;Laerm;61956;52.540;13.382;2023-03-13T11:38:26;85.88;79.36;91.35;;
73663;Laerm;61956;52.540;13.382;2023-03-13T11:41:08;85.84;79.32;91.53;;
73663;Laerm;61956;52.540;13.382;2023-03-13T11:44:07;85.85;79.25;91.27;;
73663;Laerm;61956;52.540;13.382;2023-03-13T11:46:51;85.84;79.16;91.65;;
73663;Laerm;61956;52.540;13.382;2023-03-13T11:49:39;85.82;79.16;91.41;;
73663;Laerm;61956;52.540;13.382;2023-03-13T11:52:23;85.77;79.20;91.99;;
73663;Laerm;61956;52.540;13.382;2023-03-13T11:55:19;85.72;79.32;91.10;;
73663;Laerm;61956;52.540;13.382;2023-03-13T11:58:03;85.74;79.20;91.63;;
73663;Laerm;61956;52.540;13.382;2023-03-13T12:00:42;85.71;79.28;91.25;;
73663;Laerm;61956;52.540;13.382;2023-03-13T12:03:19;85.68;79.16;92.31;;
73663;Laerm;61956;52.540;13.382;2023-03-13T12:05:54;85.66;78.85;90.83;;
73663;Laerm;61956;52.540;13.382;2023-03-13T12:08:29;85.65;79.36;91.07;;
73663;Laerm;61956;52.540;13.382;2023-03-13T12:11:11;85.66;79.09;91.58;;
73663;Laerm;61956;52.540;13.382;2023-03-13T12:13:48;85.65;78.96;91.11;;
73663;Laerm;61956;52.540;13.382;2023-03-13T12:16:26;85.60;79.12;90.79;;
73663;Laerm;61956;52.540;13.382;2023-03-13T12:18:57;85.60;78.94;91.68;;
73663;Laerm;61956;52.540;13.382;2023-03-13T12:21:31;85.58;79.13;91.31;;
73663;Laerm;61956;52.540;13.382;2023-03-13T12:24:12;85.57;79.11;91.55;;
73663;Laerm;61956;52.540;13.382;2023-03-13T12:26:54;85.52;78.59;91.45;;
73663;Laerm;61956;52.540;13.382;2023-03-13T12:29:40;85.54;79.07;91.52;;
73663;Laerm;61956;52.540;13.382;2023-03-13T12:32:18;85.54;79.05;90.98;;
73663;Laerm;61956;52.540;13.382;2023-03-13T12:35:03;85.52;79.00;92.66;;
73663;Laerm;61956;52.540;13.382;2023-03-13T12:37:42;85.50;79.06;91.27;;
73663;Laerm;61956;52.540;13.382;2023-03-13T12:40:24;85.49;78.92;90.44;;
73663;Laerm;61956;52.540;13.382;2023-03-13T12:43:03;85.49;79.02;90.99;;
73663;Laerm;61956;52.540;13.382;2023-03-13T12:45:44;85.48;78.79;90.81;;
73663;Laerm;61956;52.540;13.382;2023-03-13T12:48:40;85.50;78.96;90.93;;
73663;Laerm;61956;52.540;13.382;2023-03-13T12:51:31;85.49;79.06;91.26;;
73663;Laerm;61956;52.540;13.382;2023-03-13T12:54:32;85.46;78.95;91.46;;
73663;Laerm;61956;52.540;13.382;2023-03-13T12:57:19;85.40;79.03;91.15;;
73663;Laerm;61956;52.540;13.382;2023-03-13T12:59:58;85.39;78.79;91.19;;
73663;Laerm;61956;52.540;13.382;2023-03-13T13:02:31;85.41;78.86;91.04;;
73663;Laerm;61956;52.540;13.382;2023-03-13T13:05:01;85.34;78.88;91.99;;
73663;Laerm;61956;52.540;13.382;2023-03-13T13:07:33;85.27;78.77;90.84;;
73663;Laerm;61956;52.540;13.382;2023-03-13T13:10:20;85.24;78.77;91.51;;
73663;Laerm;61956;52.540;13.382;2023-03-13T13:13:24;85.16;78.55;91.20;;
73663;Laerm;61956;52.540;13.382;2023-03-13T13:16:04;85.11;78.65;91.08;;
73663;Laerm;61956;52.540;13.382;2023-03-13T13:18:35;85.14;78.42;91.10;;
73663;Laerm;61956;52.540;13.382;2023-03-13T13:21:22;85.11;78.74;90.29;;
73663;Laerm;61956;52.540;13.382;2023-03-13T13:23:52;85.03;78.32;91.14;;
73663;Laerm;61956;52.540;13.382;2023-03-13T13:26:49;85.02;78.09;90.54;;
73663;Laerm;61956;52.540;13.382;2023-03-13T13:29:57;85.04;78.37;90.94;;
73663;Laerm;61956;52.540;13.382;2023-03-13T13:32:41;85.03;78.59;91.00;;
73663;Laerm;61956;52.540;13.382;2023-03-13T13:35:25;85.02;78.36;90.62;;
73663;Laerm;61956;52.540;13.382;2023-03-13T13:38:34;85.04;78.16;90.75;;
73663;Laerm;61956;52.540;13.382;2023-03-13T13:41:34;84.99;78.59;90.61;;
73663;Laerm;61956;52.540;13.382;2023-03-13T13:44:27;84.98;78.49;90.64;;
73663;Laerm;61956;52.540;13.382;2023-03-13T13:46:58;84.99;78.53;90.22;;
73663;Laerm;61956;52.540;13.382;2023-03-13T13:49:56;84.97;77.97;91.19;;
73663;Laerm;61956;52.540;13.382;2023-03-13T13:52:36;84.91;78.57;90.66;;
73663;Laerm;61956;52.540;13.382;2023-03-13T13:55:41;84.93;78.01;91.25;;
73663;Laerm;61956;52.540;13.382;2023-03-13T13:58:17;85.04;78.65;91.00;;
73663;Laerm;61956;52.540;13.382;2023-03-13T14:00:53;84.91;78.31;91.32;;
73663;Laerm;61956;52.540;13.382;2023-03-13T14:03:27;84.97;78.30;90.31;;
73663;Laerm;61956;52.540;13.382;2023-03-13T14:06:03;84.90;78.34;90.36;;
73663;Laerm;61956;52.540;13.382;2023-03-13T14:08:42;84.93;78.15;90.63;;
73663;Laerm;61956;52.540;13.382;2023-03-13T14:11:25;84.86;78.27;91.08;;
73663;Laerm;61956;52.540;13.382;2023-03-13T14:14:12;84.85;78.25;90.40;;
73663;Laerm;61956;52.540;13.382;2023-03-13T14:16:47;84.89;78.44;90.41;;
73663;Laerm;61956;52.540;13.382;2023-03-13T14:19:26;84.89;78.48;91.12;;
73663;Laerm;61956;52.540;13.382;2023-03-13T14:22:04;84.90;78.41;90.70;;
73663;Laerm;61956;52.540;13.382;2023-03-13T14:24:35;84.89;77.93;90.63;;